Time;durP1;ratioP1;P1;durP2;ratioP2;P2;SDS_P1;SDS_P2;PMS_P1;PMS_P2;Temp;Humidity;BMP_temperature;BMP_pressure;BME280_temperature;BME280_humidity;BME280_pressure;Samples;Min_cycle;Max_cycle;Signal;HPM_P1;HPM_P2
2021/12/13 00:00:01;;;;;;;16.37;10.82;;;9.10;99.90;;;;;;7277932;32;20299;-80
2021/12/13 00:04:09;;;;;;;14.82;11.30;;;9.10;99.90;;;;;;7292596;32;20112;-79
2021/12/13 00:08:17;;;;;;;15.98;9.98;;;9.10;99.90;;;;;;7284629;32;20625;-80
2021/12/13 00:12:33;;;;;;;14.43;10.18;;;9.00;99.90;;;;;;7287719;32;20473;-80
2021/12/13 00:16:39;;;;;;;18.37;10.55;;;9.10;99.90;;;;;;7287762;32;20563;-79
2021/12/13 00:20:48;;;;;;;14.37;9.83;;;9.10;99.90;;;;;;7282802;32;20120;-80
2021/12/13 00:24:52;;;;;;;12.50;9.65;;;9.10;99.90;;;;;;7269014;32;20295;-80
2021/12/13 00:28:54;;;;;;;14.13;9.55;;;9.00;99.90;;;;;;7278210;32;20109;-80
2021/12/13 00:58:35;;;;;;;12.40;9.13;;;8.90;99.90;;;;;;7285600;32;20901;-80
2021/12/13 01:07:43;;;;;;;14.13;9.57;;;8.90;99.90;;;;;;7282856;32;20117;-80
2021/12/13 01:12:06;;;;;;;14.18;9.18;;;8.90;99.90;;;;;;7277992;32;20096;-80
2021/12/13 01:16:36;;;;;;;14.98;9.13;;;8.90;99.90;;;;;;7274694;32;20119;-80
2021/12/13 01:21:13;;;;;;;15.57;9.80;;;8.80;99.90;;;;;;7284092;32;20571;-80
2021/12/13 01:25:40;;;;;;;15.07;9.40;;;8.70;99.90;;;;;;7271540;32;20508;-79
2021/12/13 01:29:50;;;;;;;16.87;9.17;;;8.90;99.90;;;;;;7281501;32;20229;-80
2021/12/13 01:33:54;;;;;;;15.98;10.05;;;8.70;99.90;;;;;;7281442;32;20124;-80
2021/12/13 01:38:02;;;;;;;12.52;8.80;;;8.70;99.90;;;;;;7282474;32;20186;-80
2021/12/13 01:42:09;;;;;;;13.88;8.40;;;8.70;99.90;;;;;;7275678;32;20142;-80
2021/12/13 01:46:11;;;;;;;12.98;9.02;;;8.70;99.90;;;;;;7286180;32;20172;-80
2021/12/13 01:50:17;;;;;;;11.07;8.82;;;8.70;99.90;;;;;;7284865;32;20128;-80
2021/12/13 01:54:21;;;;;;;11.68;8.88;;;8.70;99.90;;;;;;7279071;32;20136;-80
2021/12/13 02:02:45;;;;;;;10.77;8.23;;;8.60;99.90;;;;;;7278751;32;20164;-80
2021/12/13 02:06:51;;;;;;;12.10;8.10;;;8.60;99.90;;;;;;7272956;32;20136;-80
2021/12/13 02:10:55;;;;;;;10.00;7.93;;;8.50;99.90;;;;;;7277260;32;20219;-80
2021/12/13 02:19:23;;;;;;;10.07;7.37;;;8.50;99.90;;;;;;7277344;32;20171;-80
2021/12/13 02:23:26;;;;;;;9.90;6.85;;;8.50;99.90;;;;;;7282059;32;20163;-80
2021/12/13 02:27:31;;;;;;;11.07;6.45;;;8.50;99.90;;;;;;7293747;32;20127;-80
2021/12/13 02:31:37;;;;;;;7.72;6.20;;;8.60;99.90;;;;;;7292371;32;20230;-80
2021/12/13 02:35:44;;;;;;;8.82;6.53;;;8.40;99.90;;;;;;7271152;32;20136;-80
2021/12/13 02:39:48;;;;;;;11.57;6.65;;;8.40;99.90;;;;;;7289922;32;20108;-80
2021/12/13 02:43:58;;;;;;;11.63;7.32;;;8.40;99.90;;;;;;7295474;32;20112;-80
2021/12/13 02:48:09;;;;;;;9.27;6.37;;;8.30;99.90;;;;;;7284867;32;20164;-79
2021/12/13 02:52:15;;;;;;;12.98;6.72;;;8.40;99.90;;;;;;7280180;32;20176;-79
2021/12/13 02:56:20;;;;;;;9.40;6.32;;;8.40;99.90;;;;;;7288223;32;20132;-79
2021/12/13 03:00:45;;;;;;;9.07;6.45;;;8.30;99.90;;;;;;7289575;32;20533;-79
2021/12/13 03:04:49;;;;;;;10.13;7.03;;;8.50;99.90;;;;;;7280515;32;20825;-78
2021/12/13 03:09:00;;;;;;;10.63;6.82;;;8.40;99.90;;;;;;7283684;32;20150;-78
2021/12/13 03:13:02;;;;;;;7.85;6.57;;;8.40;99.90;;;;;;7282871;32;20174;-79
2021/12/13 03:17:15;;;;;;;12.63;7.07;;;8.40;99.90;;;;;;7286003;32;20496;-78
2021/12/13 03:21:51;;;;;;;11.68;6.37;;;8.40;99.90;;;;;;7280846;32;20116;-78
2021/12/13 03:26:21;;;;;;;14.02;8.25;;;8.40;99.90;;;;;;7294597;32;20373;-78
2021/12/13 03:30:47;;;;;;;10.82;7.07;;;8.30;99.90;;;;;;7260013;32;20225;-78
2021/12/13 03:35:05;;;;;;;10.40;7.05;;;8.30;99.90;;;;;;7270328;32;20123;-78
2021/12/13 03:39:09;;;;;;;10.32;7.40;;;8.30;99.90;;;;;;7288069;32;20142;-79
2021/12/13 03:43:15;;;;;;;14.73;8.38;;;8.30;99.90;;;;;;7287110;32;20112;-78
2021/12/13 03:47:34;;;;;;;11.25;7.47;;;8.20;99.90;;;;;;7273288;32;20207;-78
2021/12/13 03:51:40;;;;;;;10.90;7.00;;;8.20;99.90;;;;;;7274141;32;20526;-78
2021/12/13 03:55:46;;;;;;;9.80;7.75;;;8.20;99.90;;;;;;7284689;32;20132;-79
2021/12/13 03:59:48;;;;;;;12.73;7.20;;;8.20;99.90;;;;;;7287611;32;20179;-78
2021/12/13 04:03:53;;;;;;;11.45;7.22;;;8.10;99.90;;;;;;7273136;32;20185;-79
2021/12/13 04:08:01;;;;;;;10.93;7.68;;;8.10;99.90;;;;;;7282861;32;20112;-78
2021/12/13 04:12:04;;;;;;;;;;;8.10;99.90;;;;;;7276127;32;20163;-79
2021/12/13 04:16:16;;;;;;;14.52;8.30;;;8.20;99.90;;;;;;7273689;32;20624;-79
2021/12/13 04:20:28;;;;;;;11.55;7.62;;;8.10;99.90;;;;;;7290486;32;20178;-79
2021/12/13 04:24:33;;;;;;;10.40;8.00;;;8.10;99.90;;;;;;7273375;32;20109;-79
2021/12/13 04:28:42;;;;;;;11.18;7.65;;;8.10;99.90;;;;;;7286649;32;20115;-79
2021/12/13 04:32:49;;;;;;;11.23;7.62;;;8.10;99.90;;;;;;7284059;32;20715;-79
2021/12/13 04:36:58;;;;;;;11.57;7.37;;;8.20;99.90;;;;;;7283034;32;20135;-79
2021/12/13 04:41:01;;;;;;;10.55;7.37;;;8.10;99.90;;;;;;7270877;32;20150;-79
2021/12/13 04:45:08;;;;;;;12.02;6.85;;;8.10;99.90;;;;;;7286800;32;20179;-79
2021/12/13 04:49:17;;;;;;;11.23;6.47;;;8.20;99.90;;;;;;7277149;32;20142;-79
2021/12/13 04:53:33;;;;;;;12.23;7.07;;;8.20;99.90;;;;;;7276462;32;20190;-78
2021/12/13 04:57:35;;;;;;;12.48;8.18;;;8.20;99.90;;;;;;7280980;32;20191;-77
2021/12/13 05:01:37;;;;;;;10.98;7.25;;;8.20;99.90;;;;;;7279035;32;20199;-78
2021/12/13 05:05:39;;;;;;;11.75;7.40;;;8.10;99.90;;;;;;7277197;32;20620;-77
2021/12/13 05:09:41;;;;;;;11.98;7.45;;;8.00;99.90;;;;;;7286140;32;20142;-77
2021/12/13 05:13:53;;;;;;;11.12;7.90;;;8.00;99.90;;;;;;7279736;32;20206;-77
2021/12/13 05:17:58;;;;;;;12.45;8.25;;;8.00;99.90;;;;;;7257620;32;20165;-77
2021/12/13 05:22:01;;;;;;;13.50;7.80;;;8.10;99.90;;;;;;7272563;32;20160;-77
2021/12/13 05:26:06;;;;;;;9.85;7.00;;;8.00;99.90;;;;;;7274963;32;20509;-77
2021/12/13 05:30:24;;;;;;;12.45;7.12;;;8.00;99.90;;;;;;7279418;32;20199;-77
2021/12/13 05:34:33;;;;;;;11.15;7.75;;;8.10;99.90;;;;;;7265662;32;20116;-77
2021/12/13 05:38:43;;;;;;;11.93;7.93;;;8.10;99.90;;;;;;7269540;32;20180;-78
2021/12/13 05:42:53;;;;;;;11.38;7.43;;;8.10;99.90;;;;;;7291768;32;20126;-77
2021/12/13 05:46:57;;;;;;;11.65;8.00;;;8.10;99.90;;;;;;7282508;32;20438;-78
2021/12/13 05:51:02;;;;;;;9.30;6.82;;;8.10;99.90;;;;;;7280805;32;20173;-79
2021/12/13 05:55:12;;;;;;;10.73;7.50;;;8.10;99.90;;;;;;7277762;32;20222;-78
2021/12/13 05:59:53;;;;;;;9.18;6.20;;;8.10;99.90;;;;;;7275272;32;20707;-79
2021/12/13 06:04:08;;;;;;;10.55;6.95;;;8.10;99.90;;;;;;7272126;32;20117;-78
2021/12/13 06:08:25;;;;;;;9.73;6.87;;;8.10;99.90;;;;;;7278795;32;20112;-78
2021/12/13 06:12:47;;;;;;;11.93;7.20;;;8.10;99.90;;;;;;7279723;32;20123;-78
2021/12/13 06:17:12;;;;;;;9.52;6.65;;;8.00;99.90;;;;;;7275877;32;20240;-78
2021/12/13 06:21:34;;;;;;;10.32;6.50;;;8.10;99.90;;;;;;7279386;32;20424;-79
2021/12/13 06:25:37;;;;;;;8.57;6.30;;;8.10;99.90;;;;;;7280738;32;20105;-76
2021/12/13 06:29:53;;;;;;;11.73;6.45;;;8.10;99.90;;;;;;7274148;32;20179;-75
2021/12/13 06:33:58;;;;;;;9.23;6.28;;;8.10;99.90;;;;;;7262339;32;20131;-76
2021/12/13 06:38:18;;;;;;;10.77;5.90;;;8.10;99.90;;;;;;7281134;32;20573;-75
2021/12/13 06:42:26;;;;;;;10.52;5.97;;;8.10;99.90;;;;;;7278860;32;20469;-75
2021/12/13 06:46:45;;;;;;;9.35;6.40;;;8.10;99.90;;;;;;7276120;32;20187;-75
2021/12/13 06:50:47;;;;;;;9.23;6.20;;;8.10;99.90;;;;;;7285317;32;20134;-75
2021/12/13 06:55:17;;;;;;;9.63;5.72;;;8.20;99.90;;;;;;7255403;32;20211;-75
2021/12/13 06:59:20;;;;;;;9.85;6.15;;;8.10;99.90;;;;;;7277999;32;20517;-76
2021/12/13 07:03:34;;;;;;;12.48;6.75;;;8.10;99.90;;;;;;7249539;32;20206;-76
2021/12/13 07:08:08;;;;;;;8.43;6.35;;;8.10;99.90;;;;;;7269880;32;20121;-75
2021/12/13 07:12:16;;;;;;;8.57;5.85;;;8.10;99.90;;;;;;7268790;32;20129;-75
2021/12/13 07:16:30;;;;;;;8.60;5.60;;;8.20;99.90;;;;;;7271114;32;20761;-76
2021/12/13 07:20:39;;;;;;;9.15;5.75;;;8.10;99.90;;;;;;7265436;32;20112;-75
2021/12/13 07:24:49;;;;;;;8.02;5.32;;;8.10;99.90;;;;;;7276697;32;20751;-75
2021/12/13 07:28:52;;;;;;;11.65;6.12;;;8.10;99.90;;;;;;7284791;32;20165;-75
2021/12/13 07:33:04;;;;;;;7.40;5.35;;;8.10;99.90;;;;;;7282591;32;20824;-75
2021/12/13 07:37:06;;;;;;;9.07;5.65;;;8.10;99.90;;;;;;7277946;32;20163;-75
2021/12/13 07:41:08;;;;;;;7.70;5.50;;;8.10;99.90;;;;;;7274676;32;20124;-76
2021/12/13 07:45:27;;;;;;;8.27;5.43;;;8.10;99.90;;;;;;7270617;32;20120;-75
2021/12/13 07:49:33;;;;;;;8.38;5.47;;;8.10;99.90;;;;;;7264757;32;20139;-76
2021/12/13 07:53:46;;;;;;;8.77;5.12;;;8.10;99.90;;;;;;7283808;32;20224;-75
2021/12/13 07:57:49;;;;;;;8.90;5.30;;;8.00;99.90;;;;;;7278161;32;20183;-76
2021/12/13 08:02:08;;;;;;;6.95;4.55;;;8.10;99.90;;;;;;7262253;32;20116;-76
2021/12/13 08:06:10;;;;;;;7.68;4.90;;;8.00;99.90;;;;;;7278810;32;20618;-75
2021/12/13 08:10:23;;;;;;;8.43;4.50;;;8.00;99.90;;;;;;7276346;32;20381;-76
2021/12/13 08:14:39;;;;;;;8.85;4.40;;;8.10;99.90;;;;;;7279728;32;20128;-77
2021/12/13 08:18:43;;;;;;;7.68;4.62;;;8.10;99.90;;;;;;7265510;32;20124;-76
2021/12/13 08:22:47;;;;;;;8.00;4.93;;;8.10;99.90;;;;;;7272990;32;20124;-76
2021/12/13 08:26:56;;;;;;;8.25;5.40;;;8.10;99.90;;;;;;7269861;32;20165;-76
2021/12/13 08:31:00;;;;;;;11.23;4.90;;;8.10;99.90;;;;;;7278408;32;20096;-76
2021/12/13 08:35:07;;;;;;;8.18;5.05;;;8.10;99.90;;;;;;7270612;32;20726;-76
2021/12/13 08:39:19;;;;;;;10.43;5.13;;;8.10;99.90;;;;;;7277932;32;20112;-76
2021/12/13 08:43:57;;;;;;;11.43;4.45;;;8.10;99.90;;;;;;7276953;32;20132;-76
2021/12/13 08:48:04;;;;;;;7.37;4.37;;;8.20;99.90;;;;;;7243760;32;20134;-76
2021/12/13 08:52:18;;;;;;;8.27;4.78;;;8.20;99.90;;;;;;7278120;32;20230;-75
2021/12/13 08:56:23;;;;;;;5.57;4.55;;;8.10;99.90;;;;;;7269289;32;20638;-75
2021/12/13 09:00:35;;;;;;;8.38;4.35;;;8.10;99.90;;;;;;7280622;32;20248;-76
2021/12/13 09:04:53;;;;;;;6.43;4.60;;;8.10;99.90;;;;;;7273723;32;20139;-75
2021/12/13 09:09:12;;;;;;;5.85;4.18;;;8.20;99.90;;;;;;7274298;32;20183;-75
2021/12/13 09:13:18;;;;;;;8.63;4.57;;;8.20;99.90;;;;;;7268056;32;20179;-75
2021/12/13 09:17:41;;;;;;;7.80;4.37;;;8.30;99.90;;;;;;7262273;32;20128;-75
2021/12/13 09:21:54;;;;;;;8.10;4.62;;;8.30;99.90;;;;;;7276106;32;20132;-78
2021/12/13 09:26:10;;;;;;;9.82;4.47;;;8.30;99.90;;;;;;7278806;32;20189;-78
2021/12/13 09:30:11;;;;;;;6.47;4.20;;;8.40;99.90;;;;;;7272088;32;20151;-78
2021/12/13 09:34:17;;;;;;;5.70;4.12;;;8.50;99.90;;;;;;7277543;32;20152;-78
2021/12/13 09:38:38;;;;;;;8.27;4.07;;;8.40;99.90;;;;;;7280865;32;20183;-79
2021/12/13 09:43:06;;;;;;;7.60;4.07;;;8.50;99.90;;;;;;7279264;32;20173;-78
2021/12/13 09:47:12;;;;;;;5.47;3.75;;;8.40;99.90;;;;;;7277104;32;20112;-79
2021/12/13 09:51:21;;;;;;;7.22;3.95;;;8.40;99.90;;;;;;7276077;32;20136;-79
2021/12/13 09:55:35;;;;;;;5.18;3.78;;;8.50;99.90;;;;;;7278387;32;20132;-79
2021/12/13 09:59:47;;;;;;;7.90;4.50;;;8.60;99.90;;;;;;7286112;32;20176;-79
2021/12/13 10:04:16;;;;;;;7.43;3.70;;;8.40;99.90;;;;;;7281917;32;20120;-79
2021/12/13 10:08:26;;;;;;;7.53;4.20;;;8.50;99.90;;;;;;7285677;32;20486;-79
2021/12/13 10:12:36;;;;;;;6.65;3.70;;;8.50;99.90;;;;;;7281527;32;20582;-78
2021/12/13 10:16:42;;;;;;;9.75;4.00;;;8.60;99.90;;;;;;7279079;32;20568;-79
2021/12/13 10:20:55;;;;;;;6.95;3.33;;;8.60;99.90;;;;;;7276364;32;20801;-78
2021/12/13 10:25:22;;;;;;;8.18;3.65;;;8.70;99.90;;;;;;7288981;32;20119;-78
2021/12/13 10:29:25;;;;;;;5.93;3.30;;;8.80;99.90;;;;;;7282164;32;20199;-79
2021/12/13 10:33:29;;;;;;;7.25;3.15;;;8.80;99.90;;;;;;7278246;32;20211;-79
2021/12/13 10:37:34;;;;;;;6.30;3.35;;;8.80;99.90;;;;;;7260654;32;20130;-79
2021/12/13 10:41:43;;;;;;;6.25;3.37;;;8.80;99.90;;;;;;7262617;32;20179;-78
2021/12/13 10:45:56;;;;;;;4.70;3.28;;;8.90;99.90;;;;;;7287112;32;20614;-79
2021/12/13 10:50:01;;;;;;;10.20;3.28;;;8.90;99.90;;;;;;7265798;32;20120;-79
2021/12/13 10:54:18;;;;;;;5.55;2.97;;;9.00;99.90;;;;;;7264046;32;20116;-78
2021/12/13 10:58:26;;;;;;;5.97;3.47;;;9.10;99.90;;;;;;7278413;32;20865;-78
2021/12/13 11:02:33;;;;;;;4.85;3.05;;;9.20;99.90;;;;;;7279857;32;20580;-78
2021/12/13 11:06:38;;;;;;;4.45;3.33;;;9.10;99.90;;;;;;7280941;32;20680;-78
2021/12/13 11:10:46;;;;;;;8.18;3.47;;;9.10;99.90;;;;;;7275663;32;20173;-79
2021/12/13 11:14:58;;;;;;;6.10;3.55;;;9.10;99.90;;;;;;7279557;32;20215;-78
2021/12/13 11:19:03;;;;;;;5.97;3.40;;;9.20;99.90;;;;;;7265520;32;20128;-79
2021/12/13 11:23:07;;;;;;;5.43;3.72;;;9.20;99.90;;;;;;7274455;32;20233;-79
2021/12/13 11:27:20;;;;;;;6.70;3.65;;;9.10;99.90;;;;;;7277696;32;20171;-79
2021/12/13 11:31:47;;;;;;;4.68;3.60;;;9.10;99.90;;;;;;7279751;32;20132;-79
2021/12/13 11:36:30;;;;;;;5.18;3.53;;;9.20;99.90;;;;;;7274899;32;20178;-79
2021/12/13 11:41:07;;;;;;;9.02;3.75;;;9.30;99.90;;;;;;7275398;32;20517;-79
2021/12/13 11:45:42;;;;;;;7.05;3.83;;;9.30;99.90;;;;;;7279566;32;20185;-79
2021/12/13 11:49:50;;;;;;;4.20;3.22;;;9.30;99.90;;;;;;7276169;32;20100;-79
2021/12/13 11:54:46;;;;;;;5.65;3.65;;;9.40;99.90;;;;;;7281642;32;20112;-79
2021/12/13 11:59:08;;;;;;;5.97;3.42;;;9.40;99.90;;;;;;7290880;32;20124;-79
2021/12/13 12:03:47;;;;;;;5.72;3.53;;;9.30;99.90;;;;;;7265988;32;20193;-79
2021/12/13 12:08:23;;;;;;;4.68;3.47;;;9.40;99.90;;;;;;7280992;32;20142;-79
2021/12/13 12:13:03;;;;;;;5.03;3.22;;;9.50;99.90;;;;;;7272353;32;20258;-79
2021/12/13 12:17:06;;;;;;;5.03;3.00;;;9.60;99.90;;;;;;7275358;32;20222;-79
2021/12/13 12:21:36;;;;;;;6.25;3.20;;;9.50;99.90;;;;;;7276256;32;20131;-81
2021/12/13 12:25:40;;;;;;;7.85;2.97;;;9.50;99.90;;;;;;7273619;32;20120;-81
2021/12/13 12:29:49;;;;;;;6.50;2.95;;;9.60;99.90;;;;;;7278638;32;20189;-79
2021/12/13 12:33:58;;;;;;;6.40;2.47;;;9.60;99.90;;;;;;7270130;32;20161;-80
2021/12/13 12:38:15;;;;;;;8.98;2.87;;;9.60;99.90;;;;;;7276093;32;20776;-81
2021/12/13 12:42:23;;;;;;;6.70;2.62;;;9.60;99.90;;;;;;7290741;32;20798;-80
2021/12/13 12:46:27;;;;;;;4.05;2.58;;;9.70;99.90;;;;;;7277415;32;20259;-81
2021/12/13 12:50:40;;;;;;;3.08;2.40;;;9.70;99.90;;;;;;7284771;32;20147;-82
2021/12/13 12:54:42;;;;;;;5.93;2.45;;;9.70;99.90;;;;;;7262707;32;20742;-81
2021/12/13 12:58:58;;;;;;;5.10;2.08;;;9.60;99.90;;;;;;7285226;32;20153;-82
2021/12/13 13:03:00;;;;;;;4.20;2.20;;;9.70;99.90;;;;;;7283153;32;20541;-82
2021/12/13 13:07:05;;;;;;;3.12;2.10;;;9.70;99.90;;;;;;7264600;32;20104;-82
2021/12/13 13:15:32;;;;;;;7.35;2.62;;;9.60;99.90;;;;;;7280651;32;20107;-82
2021/12/13 13:19:40;;;;;;;5.55;2.62;;;9.50;99.90;;;;;;7275667;32;20128;-82
2021/12/13 13:23:50;;;;;;;3.20;1.90;;;9.60;99.90;;;;;;7272020;32;20207;-82
2021/12/13 13:27:52;;;;;;;3.78;1.62;;;9.70;99.90;;;;;;7285639;32;20124;-81
2021/12/13 13:31:59;;;;;;;2.45;1.67;;;9.50;99.90;;;;;;7276117;32;20104;-82
2021/12/13 13:36:02;;;;;;;2.45;1.77;;;9.60;99.90;;;;;;7296648;32;20177;-82
2021/12/13 13:40:16;;;;;;;2.80;1.48;;;9.60;99.90;;;;;;7270216;32;20131;-84
2021/12/13 13:44:22;;;;;;;2.75;1.75;;;9.70;99.90;;;;;;7282509;32;20111;-81
2021/12/13 13:48:29;;;;;;;3.45;1.40;;;9.60;99.90;;;;;;7278412;32;20166;-81
2021/12/13 13:52:31;;;;;;;3.45;1.25;;;9.60;99.90;;;;;;7277418;32;20568;-82
2021/12/13 13:56:40;;;;;;;2.60;1.20;;;9.40;99.90;;;;;;7272644;32;20096;-82
2021/12/13 14:01:00;;;;;;;3.95;1.70;;;9.40;99.90;;;;;;7262852;32;20196;-82
2021/12/13 14:05:06;;;;;;;2.72;1.50;;;9.40;99.90;;;;;;7279872;32;20138;-82
2021/12/13 14:09:19;;;;;;;2.70;1.48;;;9.40;99.90;;;;;;7275897;32;20149;-82
2021/12/13 14:13:22;;;;;;;3.78;1.40;;;9.40;99.90;;;;;;7282491;32;20190;-83
2021/12/13 14:17:42;;;;;;;1.80;1.45;;;9.30;99.90;;;;;;7275616;32;20112;-83
2021/12/13 14:21:45;;;;;;;5.62;1.60;;;9.30;99.90;;;;;;7289162;32;20182;-82
2021/12/13 14:25:50;;;;;;;5.97;1.75;;;9.20;99.90;;;;;;7282192;32;20175;-82
2021/12/13 14:30:07;;;;;;;2.92;1.60;;;9.20;99.90;;;;;;7279981;32;20177;-83
2021/12/13 14:34:18;;;;;;;2.90;1.60;;;9.10;99.90;;;;;;7275454;32;20854;-81
2021/12/13 14:38:20;;;;;;;5.12;1.75;;;9.10;99.90;;;;;;7293737;32;20120;-82
2021/12/13 14:42:24;;;;;;;2.72;1.73;;;9.20;99.90;;;;;;7282315;32;20163;-82
2021/12/13 14:46:31;;;;;;;3.33;1.50;;;9.10;99.90;;;;;;7291629;32;20159;-83
2021/12/13 14:50:33;;;;;;;3.37;1.50;;;9.10;99.90;;;;;;7273769;32;20473;-78
2021/12/13 14:54:37;;;;;;;5.00;1.30;;;9.10;99.90;;;;;;7274843;32;20205;-79
2021/12/13 14:58:44;;;;;;;2.75;1.17;;;9.00;99.90;;;;;;7280493;32;20163;-79
2021/12/13 15:02:53;;;;;;;3.70;1.27;;;9.00;99.90;;;;;;7283122;32;20210;-82
2021/12/13 15:07:04;;;;;;;3.58;1.55;;;8.90;99.90;;;;;;7301830;32;20248;-81
2021/12/13 15:11:12;;;;;;;2.62;1.15;;;9.00;99.90;;;;;;7283675;32;20191;-81
2021/12/13 15:15:15;;;;;;;1.80;1.00;;;8.90;99.90;;;;;;7280541;32;20306;-79
2021/12/13 15:19:20;;;;;;;3.25;1.35;;;8.80;99.90;;;;;;7286793;32;20417;-81
2021/12/13 15:23:26;;;;;;;1.48;0.77;;;8.70;99.90;;;;;;7284201;32;20133;-82
2021/12/13 15:27:31;;;;;;;2.85;1.10;;;8.90;99.90;;;;;;7285880;32;20108;-81
2021/12/13 15:31:40;;;;;;;1.60;0.90;;;8.80;99.90;;;;;;7289404;32;20120;-81
2021/12/13 15:35:46;;;;;;;2.35;1.00;;;8.80;99.90;;;;;;7291859;32;20458;-82
2021/12/13 15:40:13;;;;;;;2.10;0.90;;;8.70;99.90;;;;;;7298505;32;21015;-82
2021/12/13 15:44:17;;;;;;;2.70;1.10;;;8.70;99.90;;;;;;7280964;32;20128;-80
2021/12/13 15:52:59;;;;;;;3.03;0.90;;;8.80;99.90;;;;;;7281327;32;20123;-80
2021/12/13 15:57:17;;;;;;;1.40;0.70;;;8.80;99.90;;;;;;7281222;32;20172;-80
2021/12/13 16:01:22;;;;;;;3.70;1.00;;;8.70;99.90;;;;;;7270371;32;20211;-81
2021/12/13 16:05:27;;;;;;;2.62;0.90;;;8.70;99.90;;;;;;7289757;32;20130;-81
2021/12/13 16:09:35;;;;;;;1.70;0.75;;;8.60;99.90;;;;;;7277132;32;20148;-81
2021/12/13 16:13:37;;;;;;;1.70;1.10;;;8.70;99.90;;;;;;7277669;32;20195;-81
2021/12/13 16:17:43;;;;;;;4.57;0.90;;;8.70;99.90;;;;;;7271869;32;20144;-81
2021/12/13 16:21:45;;;;;;;3.87;1.12;;;8.70;99.90;;;;;;7280054;32;20104;-82
2021/12/13 16:25:51;;;;;;;3.97;0.98;;;8.60;99.90;;;;;;7271106;32;20831;-81
2021/12/13 16:29:54;;;;;;;4.32;1.10;;;8.60;99.90;;;;;;7276284;32;20537;-83
2021/12/13 16:34:12;;;;;;;1.55;0.70;;;8.60;99.90;;;;;;7269000;32;20142;-82
2021/12/13 16:38:14;;;;;;;2.97;0.90;;;8.50;99.90;;;;;;7272839;32;20142;-82
2021/12/13 16:42:26;;;;;;;2.22;0.85;;;8.50;99.90;;;;;;7265750;32;20675;-82
2021/12/13 16:46:29;;;;;;;2.75;1.08;;;8.50;99.90;;;;;;7278518;32;20142;-82
2021/12/13 16:50:33;;;;;;;1.50;0.98;;;8.40;99.90;;;;;;7267431;32;20115;-82
2021/12/13 16:54:38;;;;;;;3.83;1.30;;;8.50;99.90;;;;;;7272655;32;20097;-82
2021/12/13 16:58:43;;;;;;;1.75;0.80;;;8.30;99.90;;;;;;7271310;32;20168;-81
2021/12/13 17:02:46;;;;;;;1.55;0.80;;;8.50;99.90;;;;;;7272500;32;20103;-78
2021/12/13 17:06:51;;;;;;;2.15;1.02;;;8.40;99.90;;;;;;7274666;32;20100;-81
2021/12/13 17:10:57;;;;;;;3.12;0.90;;;8.40;99.90;;;;;;7264715;32;20165;-80
2021/12/13 17:15:04;;;;;;;3.47;1.00;;;8.40;99.90;;;;;;7277429;32;20104;-81
2021/12/13 17:19:09;;;;;;;;;;;8.40;99.90;;;;;;7257647;32;20324;-81
2021/12/13 17:23:21;;;;;;;4.65;0.90;;;8.40;99.90;;;;;;7273551;32;20121;-80
2021/12/13 17:27:26;;;;;;;2.33;1.50;;;8.40;99.90;;;;;;7270983;32;20186;-81
2021/12/13 17:31:52;;;;;;;2.45;1.40;;;8.30;99.90;;;;;;7261099;32;20101;-81
2021/12/13 17:35:53;;;;;;;5.20;1.45;;;8.40;99.90;;;;;;7273420;32;20179;-81
2021/12/13 17:40:03;;;;;;;6.95;1.60;;;8.40;99.90;;;;;;7274674;32;20150;-81
2021/12/13 17:44:15;;;;;;;6.93;1.73;;;8.30;99.90;;;;;;7279720;32;20192;-84
2021/12/13 17:48:34;;;;;;;2.05;1.42;;;8.30;99.90;;;;;;7281162;32;20207;-83
2021/12/13 17:52:47;;;;;;;3.80;1.40;;;8.20;99.90;;;;;;7282555;32;20640;-83
2021/12/13 17:56:53;;;;;;;3.70;1.15;;;8.30;99.90;;;;;;7280059;32;20179;-83
2021/12/13 18:01:11;;;;;;;3.17;1.20;;;8.40;99.90;;;;;;7288273;32;20323;-83
2021/12/13 18:05:28;;;;;;;7.72;1.55;;;8.30;99.90;;;;;;7297787;32;20112;-84
2021/12/13 18:09:45;;;;;;;3.95;1.42;;;8.40;99.90;;;;;;7278006;32;20131;-83
2021/12/13 18:13:47;;;;;;;5.28;1.65;;;8.30;99.90;;;;;;7283905;32;20119;-83
2021/12/13 18:17:56;;;;;;;6.30;1.80;;;8.30;99.90;;;;;;7271628;32;20179;-83
2021/12/13 18:21:58;;;;;;;4.00;1.50;;;8.20;99.90;;;;;;7298203;32;20937;-82
2021/12/13 18:26:22;;;;;;;3.67;1.65;;;8.20;99.90;;;;;;7268057;32;20108;-83
2021/12/13 18:30:26;;;;;;;5.07;1.80;;;8.10;99.90;;;;;;7288640;32;20591;-83
2021/12/13 18:34:35;;;;;;;4.60;1.90;;;8.10;99.90;;;;;;7273561;32;20099;-85
2021/12/13 18:39:03;;;;;;;2.83;1.52;;;8.10;99.90;;;;;;7288814;32;20693;-82
2021/12/13 18:43:20;;;;;;;5.28;2.20;;;8.30;99.90;;;;;;7269584;32;20129;-86
2021/12/13 18:47:25;;;;;;;9.50;2.90;;;8.10;99.90;;;;;;7308561;32;20146;-87
2021/12/13 18:51:42;;;;;;;7.55;3.17;;;8.20;99.90;;;;;;7312521;32;20151;-84
2021/12/13 18:55:45;;;;;;;6.32;3.10;;;8.10;99.90;;;;;;7306647;32;20131;-86
2021/12/13 19:00:17;;;;;;;7.05;2.25;;;8.00;99.90;;;;;;7324198;32;20175;-86
2021/12/13 19:04:26;;;;;;;4.62;1.85;;;8.00;99.90;;;;;;7317457;32;20096;-85
2021/12/13 19:08:42;;;;;;;3.00;1.73;;;8.10;99.90;;;;;;7316063;32;20135;-82
2021/12/13 19:12:49;;;;;;;3.60;1.87;;;8.20;99.90;;;;;;7325937;32;20104;-84
2021/12/13 19:17:01;;;;;;;3.33;1.90;;;8.10;99.90;;;;;;7293937;32;20152;-82
2021/12/13 19:21:11;;;;;;;3.92;1.80;;;8.10;99.90;;;;;;7302078;32;20100;-82
2021/12/13 19:25:17;;;;;;;3.25;1.95;;;8.30;99.90;;;;;;7293936;32;20104;-82
2021/12/13 19:29:28;;;;;;;3.87;1.95;;;8.30;99.90;;;;;;7294010;32;20283;-83
2021/12/13 19:33:38;;;;;;;5.62;1.90;;;8.30;99.90;;;;;;7289734;32;20117;-83
2021/12/13 19:37:44;;;;;;;3.67;2.20;;;8.30;99.90;;;;;;7293649;32;20107;-83
2021/12/13 19:41:53;;;;;;;3.55;1.65;;;8.10;99.90;;;;;;7278617;32;20128;-84
2021/12/13 19:46:00;;;;;;;3.67;2.08;;;8.10;99.90;;;;;;7285434;32;20224;-85
2021/12/13 19:50:27;;;;;;;3.90;2.10;;;8.20;99.90;;;;;;7282477;32;20164;-86
2021/12/13 19:54:37;;;;;;;6.75;2.00;;;8.20;99.90;;;;;;7293533;32;20161;-84
2021/12/13 19:58:48;;;;;;;6.00;2.65;;;8.10;99.90;;;;;;7302580;32;20158;-84
2021/12/13 20:02:54;;;;;;;5.03;2.42;;;8.10;99.90;;;;;;7293066;32;20121;-83
2021/12/13 20:07:17;;;;;;;2.97;1.83;;;8.20;99.90;;;;;;7285959;32;20203;-83
2021/12/13 20:11:30;;;;;;;3.47;1.60;;;8.20;99.90;;;;;;7296722;32;20112;-82
2021/12/13 20:15:44;;;;;;;5.65;1.77;;;8.10;99.90;;;;;;7283792;32;20588;-82
2021/12/13 20:19:57;;;;;;;2.28;1.50;;;8.10;99.90;;;;;;7289830;32;20177;-84
2021/12/13 20:24:02;;;;;;;4.15;1.77;;;8.10;99.90;;;;;;7290574;32;20097;-82
2021/12/13 20:28:17;;;;;;;3.95;1.55;;;8.20;99.90;;;;;;7291431;32;20121;-83
2021/12/13 20:32:34;;;;;;;3.33;1.45;;;8.10;99.90;;;;;;7279783;32;20104;-82
2021/12/13 20:36:55;;;;;;;2.72;1.50;;;8.10;99.90;;;;;;7288335;32;20484;-83
2021/12/13 20:41:02;;;;;;;2.55;1.33;;;8.00;99.90;;;;;;7287480;32;20256;-82
2021/12/13 20:45:37;;;;;;;2.67;1.37;;;8.00;99.90;;;;;;7290725;32;20784;-83
2021/12/13 20:49:45;;;;;;;3.50;1.25;;;7.90;99.90;;;;;;7289660;32;20104;-85
2021/12/13 20:53:50;;;;;;;2.92;1.65;;;8.00;99.90;;;;;;7303765;32;20241;-83
2021/12/13 20:58:07;;;;;;;2.87;1.10;;;8.00;99.90;;;;;;7291924;32;20100;-83
2021/12/13 21:02:13;;;;;;;;;;;8.00;99.90;;;;;;7279749;32;20101;-83
2021/12/13 21:06:26;;;;;;;4.15;1.42;;;8.00;99.90;;;;;;7290064;32;20053;-82
2021/12/13 21:10:35;;;;;;;2.33;1.23;;;7.90;99.90;;;;;;7298324;32;20111;-83
2021/12/13 21:14:42;;;;;;;1.80;1.10;;;7.90;99.90;;;;;;7294902;32;20211;-83
2021/12/13 21:18:52;;;;;;;1.45;0.95;;;7.80;99.90;;;;;;7294192;32;20112;-85
2021/12/13 21:23:00;;;;;;;3.28;1.33;;;7.80;99.90;;;;;;7298713;32;20181;-84
2021/12/13 21:27:04;;;;;;;3.58;1.48;;;7.80;99.90;;;;;;7290163;32;20477;-83
2021/12/13 21:31:09;;;;;;;1.95;1.33;;;8.00;99.90;;;;;;7301981;32;20130;-83
2021/12/13 21:35:39;;;;;;;4.05;1.23;;;8.10;99.90;;;;;;7284689;32;20122;-79
2021/12/13 21:39:41;;;;;;;2.33;1.20;;;8.00;99.90;;;;;;7292343;32;20112;-79
2021/12/13 21:43:52;;;;;;;2.75;1.20;;;8.00;99.90;;;;;;7290022;32;20101;-79
2021/12/13 21:48:02;;;;;;;5.45;1.92;;;7.90;99.90;;;;;;7300297;32;20126;-82
2021/12/13 21:52:19;;;;;;;4.85;1.52;;;7.90;99.90;;;;;;7291282;32;20588;-81
2021/12/13 21:56:30;;;;;;;2.33;1.40;;;7.90;99.90;;;;;;7285768;32;20302;-82
2021/12/13 22:00:40;;;;;;;3.85;1.30;;;7.90;99.90;;;;;;7284053;32;20503;-82
2021/12/13 22:04:57;;;;;;;2.67;1.40;;;7.80;99.90;;;;;;7282994;32;20104;-82
2021/12/13 22:09:16;;;;;;;3.00;1.33;;;7.80;99.90;;;;;;7280767;32;20192;-82
2021/12/13 22:13:23;;;;;;;3.15;1.70;;;7.80;99.90;;;;;;7288576;32;20108;-82
2021/12/13 22:17:44;;;;;;;2.70;1.73;;;7.70;99.90;;;;;;7283109;32;20208;-82
2021/12/13 22:21:47;;;;;;;5.37;2.17;;;7.80;99.90;;;;;;7281743;32;20174;-82
2021/12/13 22:26:09;;;;;;;4.40;2.53;;;7.80;99.90;;;;;;7292787;32;20104;-82
2021/12/13 22:30:23;;;;;;;4.03;2.60;;;7.70;99.90;;;;;;7268203;32;20188;-84
2021/12/13 22:34:46;;;;;;;4.93;2.87;;;7.80;99.90;;;;;;7276851;32;20195;-80
2021/12/13 22:38:55;;;;;;;6.55;3.17;;;7.80;99.90;;;;;;7276685;32;20241;-80
2021/12/13 22:43:30;;;;;;;7.62;3.20;;;7.80;99.90;;;;;;7280431;32;20122;-81
2021/12/13 22:47:33;;;;;;;;;;;7.70;99.90;;;;;;7272044;32;20109;-82